Time;durP1;ratioP1;P1;durP2;ratioP2;P2;SDS_P1;SDS_P2;PMS_P1;PMS_P2;Temp;Humidity;BMP_temperature;BMP_pressure;BME280_temperature;BME280_humidity;BME280_pressure;Samples;Min_cycle;Max_cycle;Signal;HPM_P1;HPM_P2
2022/12/29 00:01:05;;;;;;;6.53;4.22;;;;;;;15.10;100.00;102130.84;2101475;28;20044;-74
2022/12/29 00:02:27;;;;;;;8.52;5.22;;;;;;;15.07;100.00;102137.03;2102389;28;20056;-74
2022/12/29 00:03:48;;;;;;;9.68;4.72;;;;;;;15.03;100.00;102135.16;2101530;28;20244;-74
2022/12/29 00:05:12;;;;;;;8.60;5.05;;;;;;;15.01;100.00;102136.91;2104285;28;20105;-74
2022/12/29 00:06:35;;;;;;;9.35;4.90;;;;;;;14.99;100.00;102135.97;2102428;28;20040;-74
2022/12/29 00:07:57;;;;;;;10.13;4.82;;;;;;;14.98;100.00;102139.50;2103626;28;20048;-73
2022/12/29 00:09:18;;;;;;;8.50;5.00;;;;;;;14.97;100.00;102136.78;2102061;28;20598;-74
2022/12/29 00:10:41;;;;;;;7.82;4.82;;;;;;;14.94;100.00;102137.66;2102459;28;20079;-74
2022/12/29 00:12:03;;;;;;;9.55;4.47;;;;;;;14.92;100.00;102141.13;2102258;28;20051;-74
2022/12/29 00:16:43;;;;;;;6.95;4.55;;;;;;;14.78;100.00;102138.19;2104768;28;20052;-74
2022/12/29 00:18:05;;;;;;;7.57;4.80;;;;;;;14.74;100.00;102134.59;2093648;28;20037;-74
2022/12/29 00:36:22;;;;;;;8.23;5.38;;;;;;;15.03;100.00;102132.50;2104320;28;20413;-74
2022/12/29 00:44:26;;;;;;;22.95;14.50;;;;;;;14.96;100.00;102140.34;2095558;28;20040;-74
2022/12/29 00:45:47;;;;;;;18.90;11.27;;;;;;;14.98;100.00;102147.47;2091330;28;20071;-74
2022/12/29 00:47:09;;;;;;;11.13;7.00;;;;;;;15.00;100.00;102142.19;2099208;28;20058;-73
2022/12/29 00:50:10;;;;;;;10.93;6.30;;;;;;;15.02;100.00;102149.34;2095356;28;20044;-74
2022/12/29 00:51:34;;;;;;;12.85;6.38;;;;;;;15.04;100.00;102141.38;2107718;28;20097;-74
2022/12/29 00:52:57;;;;;;;10.70;5.53;;;;;;;15.04;100.00;102142.28;2102353;28;20032;-74
2022/12/29 00:54:18;;;;;;;10.90;5.85;;;;;;;15.03;100.00;102135.16;2099358;28;20052;-74
2022/12/29 00:55:41;;;;;;;9.30;5.13;;;;;;;15.03;100.00;102142.25;2101894;28;20052;-74
2022/12/29 00:57:06;;;;;;;11.85;5.68;;;;;;;15.04;100.00;102144.03;2091645;28;20444;-74
2022/12/29 00:58:27;;;;;;;9.20;5.10;;;;;;;15.04;100.00;102144.03;2099941;28;20492;-74
2022/12/29 00:59:50;;;;;;;8.65;5.00;;;;;;;15.04;100.00;102138.72;2102064;28;20436;-74
2022/12/29 01:01:11;;;;;;;8.85;5.20;;;;;;;15.02;100.00;102138.72;2101743;28;20040;-74
2022/12/29 01:02:34;;;;;;;9.25;5.40;;;;;;;15.01;100.00;102146.66;2096311;28;20427;-74
2022/12/29 01:03:57;;;;;;;10.52;5.82;;;;;;;14.99;100.00;102140.38;2102064;28;20040;-74
2022/12/29 01:05:19;;;;;;;8.48;5.05;;;;;;;14.98;100.00;102143.91;2096103;28;20056;-74
2022/12/29 01:06:43;;;;;;;9.30;4.72;;;;;;;14.95;100.00;102139.44;2093899;28;20094;-74
2022/12/29 01:08:06;;;;;;;8.15;5.53;;;;;;;14.94;100.00;102137.66;2099702;28;20059;-74
2022/12/29 01:11:09;;;;;;;10.90;6.20;;;;;;;14.93;100.00;102143.84;2096168;28;20048;-75
2022/12/29 01:12:44;;;;;;;9.38;5.53;;;;;;;14.92;100.00;102144.69;2090893;28;20037;-74
2022/12/29 01:14:07;;;;;;;10.50;5.90;;;;;;;14.92;100.00;102138.47;2102810;28;20048;-73
2022/12/29 01:15:29;;;;;;;9.55;5.47;;;;;;;14.90;100.00;102138.44;2093827;28;20044;-74
2022/12/29 01:16:51;;;;;;;9.18;5.18;;;;;;;14.90;100.00;102138.44;2095375;28;20052;-73
2022/12/29 01:18:13;;;;;;;8.88;5.43;;;;;;;14.89;100.00;102139.34;2093566;28;20074;-74
2022/12/29 01:19:34;;;;;;;13.88;6.00;;;;;;;14.88;100.00;102129.56;2099503;28;20064;-74
2022/12/29 01:21:01;;;;;;;9.40;5.50;;;;;;;14.88;100.00;102134.88;2102094;28;20055;-74
2022/12/29 01:22:25;;;;;;;8.98;5.40;;;;;;;14.87;100.00;102124.19;2093962;28;20082;-74
2022/12/29 01:23:46;;;;;;;10.38;5.50;;;;;;;14.87;100.00;102130.41;2093846;28;20052;-74
2022/12/29 01:25:09;;;;;;;8.32;5.68;;;;;;;14.86;100.00;102125.97;2091019;28;20049;-74
2022/12/29 01:26:33;;;;;;;7.45;4.75;;;;;;;14.86;100.00;102117.09;2091650;28;20040;-74
2022/12/29 01:27:55;;;;;;;8.20;5.45;;;;;;;14.85;100.00;102115.28;2091205;28;20417;-74
2022/12/29 01:29:17;;;;;;;8.80;5.60;;;;;;;14.84;100.00;102106.41;2099025;28;20045;-74
2022/12/29 01:30:41;;;;;;;10.55;5.47;;;;;;;14.82;100.00;102120.56;2092888;28;20180;-74
2022/12/29 01:32:04;;;;;;;9.20;6.20;;;;;;;14.80;100.00;102119.63;2087957;28;20390;-73
2022/12/29 01:33:25;;;;;;;9.77;6.47;;;;;;;14.79;100.00;102113.41;2091322;28;20040;-73
2022/12/29 01:34:47;;;;;;;8.82;5.90;;;;;;;14.78;100.00;102114.25;2093486;28;20103;-73
2022/12/29 01:36:10;;;;;;;9.43;6.55;;;;;;;14.77;100.00;102120.44;2093650;28;20115;-74
2022/12/29 01:37:35;;;;;;;11.23;6.93;;;;;;;14.75;100.00;102111.56;2093598;28;20052;-73
2022/12/29 01:38:57;;;;;;;8.98;5.85;;;;;;;14.73;100.00;102113.28;2097844;28;20044;-74
2022/12/29 01:40:19;;;;;;;9.55;6.38;;;;;;;14.72;100.00;102112.38;2101913;28;20052;-73
2022/12/29 01:41:42;;;;;;;9.60;6.70;;;;;;;14.71;100.00;102115.00;2093782;28;20575;-74
2022/12/29 01:43:07;;;;;;;9.63;6.50;;;;;;;14.70;100.00;102115.91;2093559;28;20044;-74
2022/12/29 01:44:51;;;;;;;10.00;6.53;;;;;;;14.67;100.00;102113.16;2099870;28;20143;-74
2022/12/29 01:46:23;;;;;;;12.70;7.90;;;;;;;14.67;100.00;102121.13;2096339;28;20037;-74
2022/12/29 01:47:51;;;;;;;14.80;9.50;;;;;;;14.64;100.00;102113.97;2095979;28;20040;-74
2022/12/29 01:49:15;;;;;;;11.15;6.57;;;;;;;14.66;100.00;102119.34;2093843;28;20086;-74
2022/12/29 01:50:42;;;;;;;9.88;6.32;;;;;;;14.68;100.00;102115.84;2093978;28;20139;-74
2022/12/29 01:52:07;;;;;;;12.27;7.28;;;;;;;14.71;100.00;102120.31;2099925;28;20054;-74
2022/12/29 01:53:35;;;;;;;10.05;6.65;;;;;;;14.73;100.00;102116.84;2102231;28;20059;-75
2022/12/29 01:54:59;;;;;;;9.07;6.80;;;;;;;14.75;100.00;102116.88;2102753;28;20048;-74
2022/12/29 01:56:22;;;;;;;11.30;6.80;;;;;;;14.77;100.00;102112.47;2094315;28;20049;-74
2022/12/29 01:57:49;;;;;;;10.55;6.43;;;;;;;14.77;100.00;102115.13;2099471;28;20048;-74
2022/12/29 01:59:16;;;;;;;11.50;6.88;;;;;;;14.79;100.00;102116.06;2095267;28;20036;-74
2022/12/29 02:00:39;;;;;;;10.10;6.35;;;;;;;14.79;100.00;102112.50;2093747;28;20106;-74
2022/12/29 02:02:01;;;;;;;8.93;5.50;;;;;;;14.80;100.00;102112.53;2089180;28;20053;-74
2022/12/29 02:03:26;;;;;;;9.38;6.55;;;;;;;14.78;100.00;102111.59;2100508;28;20056;-74
2022/12/29 02:04:48;;;;;;;8.15;6.05;;;;;;;14.79;100.00;102117.81;2103602;28;20104;-74
2022/12/29 02:06:18;;;;;;;10.60;7.75;;;;;;;14.79;100.00;102113.41;2102716;28;20036;-74
2022/12/29 02:07:42;;;;;;;11.00;6.68;;;;;;;14.82;100.00;102123.22;2112449;28;20120;-74
2022/12/29 02:09:07;;;;;;;8.20;6.15;;;;;;;14.85;100.00;102118.84;2105855;28;20032;-74
2022/12/29 02:10:32;;;;;;;11.20;6.82;;;;;;;14.88;100.00;102112.69;2089564;28;20378;-74
2022/12/29 02:11:55;;;;;;;9.43;6.60;;;;;;;14.88;100.00;102112.69;2094985;28;20045;-74
2022/12/29 02:13:17;;;;;;;8.13;6.38;;;;;;;14.87;100.00;102114.47;2094861;28;20044;-74
2022/12/29 02:14:39;;;;;;;;;;;;;;;14.81;100.00;102118.75;2092688;28;20432;-74
2022/12/29 02:16:12;;;;;;;10.05;6.35;;;;;;;14.81;100.00;102124.09;2100676;28;19951;-74
2022/12/29 02:17:50;;;;;;;11.05;6.95;;;;;;;14.80;100.00;102115.19;2096502;28;20036;-74
2022/12/29 02:19:45;;;;;;;9.30;6.28;;;;;;;14.75;100.00;102109.81;2104136;28;20052;-74
2022/12/29 02:21:43;;;;;;;10.93;6.50;;;;;;;14.71;100.00;102123.88;2097420;28;20113;-74
2022/12/29 02:23:27;;;;;;;16.15;13.02;;;;;;;14.67;100.00;102115.81;2097506;28;20052;-74
2022/12/29 02:25:39;;;;;;;35.40;31.70;;;;;;;14.63;100.00;102111.31;2093514;28;20045;-74
2022/12/29 02:27:27;;;;;;;36.33;32.50;;;;;;;14.61;100.00;102105.06;2063525;28;20049;-74
2022/12/29 02:29:22;;;;;;;21.20;19.15;;;;;;;14.63;100.00;102106.00;2051860;28;20101;-73
2022/12/29 02:30:56;;;;;;;11.43;7.78;;;;;;;14.62;100.00;102107.75;2089136;28;20080;-74
2022/12/29 02:32:27;;;;;;;9.32;6.40;;;;;;;14.63;100.00;102111.31;2095009;28;20060;-73
2022/12/29 02:33:59;;;;;;;10.73;7.07;;;;;;;14.60;100.00;102112.13;2087467;28;20049;-74
2022/12/29 02:35:31;;;;;;;14.85;11.23;;;;;;;14.61;100.00;102110.38;2094540;28;20110;-74
2022/12/29 02:37:03;;;;;;;9.55;6.50;;;;;;;14.62;100.00;102109.53;2079920;28;20053;-74
2022/12/29 02:38:37;;;;;;;12.52;6.47;;;;;;;14.66;100.00;102106.94;2095167;28;20056;-74
2022/12/29 02:40:07;;;;;;;9.07;5.90;;;;;;;14.66;100.00;102108.69;2094918;28;20048;-74
2022/12/29 02:41:32;;;;;;;9.48;5.93;;;;;;;14.66;100.00;102109.59;2087552;28;20052;-74
2022/12/29 02:43:02;;;;;;;9.40;5.40;;;;;;;14.67;100.00;102110.50;2103706;28;20515;-74
2022/12/29 02:44:30;;;;;;;9.45;6.13;;;;;;;14.68;100.00;102112.31;2105433;28;20181;-74
2022/12/29 02:45:58;;;;;;;10.18;6.53;;;;;;;14.70;100.00;102107.91;2097112;28;20777;-74
2022/12/29 02:47:29;;;;;;;10.63;5.60;;;;;;;14.69;100.00;102106.13;2102232;28;20527;-74
2022/12/29 02:49:01;;;;;;;9.95;6.28;;;;;;;14.69;100.00;102108.78;2095459;28;20048;-74
2022/12/29 02:50:27;;;;;;;9.10;6.45;;;;;;;14.68;100.00;102109.66;2103020;28;21724;-75
2022/12/29 02:51:56;;;;;;;9.00;5.80;;;;;;;14.68;100.00;102109.66;2100457;28;20048;-74
2022/12/29 02:54:40;;;;;;;9.55;6.00;;;;;;;14.66;100.00;102104.28;2102567;28;20032;-74
2022/12/29 02:55:04;;;;;;;9.18;5.78;;;;;;;14.64;100.00;102103.34;2112758;28;20071;-74
2022/12/29 02:56:26;;;;;;;11.52;5.60;;;;;;;14.64;100.00;102105.09;2088888;28;20056;-74
2022/12/29 02:57:48;;;;;;;;;;;;;;;14.59;100.00;102101.47;2092476;28;20595;-74
2022/12/29 02:59:12;;;;;;;9.38;6.50;;;;;;;14.60;100.00;102105.91;2091501;28;20387;-74
2022/12/29 03:00:39;;;;;;;11.30;5.90;;;;;;;14.63;100.00;102104.25;2092011;28;20056;-74
2022/12/29 03:02:31;;;;;;;10.57;6.28;;;;;;;14.64;100.00;102099.78;2086984;28;20055;-74
2022/12/29 03:04:11;;;;;;;7.93;4.75;;;;;;;14.61;100.00;102100.66;2088609;28;20060;-74
2022/12/29 03:05:57;;;;;;;9.02;5.38;;;;;;;14.61;100.00;102102.41;2102345;28;20441;-74
2022/12/29 03:07:29;;;;;;;9.80;6.22;;;;;;;14.61;100.00;102107.72;2096624;28;20045;-74
2022/12/29 03:08:59;;;;;;;8.15;5.65;;;;;;;14.64;100.00;102105.09;2086064;28;20053;-74
2022/12/29 03:10:34;;;;;;;7.70;4.72;;;;;;;14.68;100.00;102109.66;2093273;28;20048;-74
2022/12/29 03:12:07;;;;;;;9.77;5.18;;;;;;;14.70;100.00;102108.78;2111955;28;20082;-75
2022/12/29 03:17:04;;;;;;;9.50;5.63;;;;;;;14.77;100.00;102113.38;2088671;28;20053;-74
2022/12/29 03:18:38;;;;;;;9.65;5.80;;;;;;;14.82;100.00;102112.59;2095457;28;20492;-75
2022/12/29 03:20:05;;;;;;;8.20;5.50;;;;;;;14.84;100.00;102114.38;2095945;28;20078;-74
2022/12/29 03:23:15;;;;;;;9.15;5.97;;;;;;;14.83;100.00;102117.94;2090383;28;20449;-74
2022/12/29 03:24:43;;;;;;;7.93;5.30;;;;;;;14.84;100.00;102118.81;2099415;28;20032;-75
2022/12/29 03:26:11;;;;;;;8.93;5.95;;;;;;;14.84;100.00;102125.03;2094758;28;20052;-75
2022/12/29 03:27:38;;;;;;;8.13;5.40;;;;;;;14.84;100.00;102121.47;2101853;28;20511;-75
2022/12/29 03:29:01;;;;;;;9.93;6.97;;;;;;;14.85;100.00;102128.56;2086264;28;20047;-74
2022/12/29 03:30:26;;;;;;;8.82;6.07;;;;;;;14.85;100.00;102123.25;2090085;28;20147;-75
2022/12/29 03:31:53;;;;;;;11.23;5.93;;;;;;;14.86;100.00;102125.97;2092104;28;20088;-74
2022/12/29 03:33:19;;;;;;;11.02;5.93;;;;;;;14.87;100.00;102129.53;2094584;28;20070;-74
2022/12/29 03:34:46;;;;;;;8.32;5.40;;;;;;;14.88;100.00;102126.91;2101989;28;20080;-74
2022/12/29 03:36:15;;;;;;;7.80;5.35;;;;;;;14.87;100.00;102127.75;2096391;28;20044;-74
2022/12/29 03:37:41;;;;;;;8.50;5.68;;;;;;;14.86;100.00;102128.63;2086964;28;20060;-75
2022/12/29 03:39:11;;;;;;;8.77;5.30;;;;;;;14.87;100.00;102133.06;2097773;28;20060;-74
2022/12/29 03:40:35;;;;;;;8.52;5.10;;;;;;;14.88;100.00;102140.19;2091624;28;20147;-74
2022/12/29 03:42:00;;;;;;;8.10;5.25;;;;;;;14.89;100.00;102135.78;2099540;28;20064;-74
2022/12/29 03:43:22;;;;;;;8.52;5.30;;;;;;;14.89;100.00;102138.44;2094523;28;20101;-74
2022/12/29 03:44:45;;;;;;;9.77;5.72;;;;;;;14.91;100.00;102134.91;2102350;28;20050;-74
2022/12/29 03:46:09;;;;;;;10.52;5.75;;;;;;;14.93;100.00;102135.84;2097697;28;20148;-74
2022/12/29 03:47:33;;;;;;;9.40;5.32;;;;;;;14.94;100.00;102139.41;2100625;28;20040;-74
2022/12/29 03:48:57;;;;;;;7.47;4.63;;;;;;;14.95;100.00;102136.78;2099725;28;20213;-74
2022/12/29 03:50:20;;;;;;;6.78;4.75;;;;;;;14.97;100.00;102139.47;2096663;28;20040;-74
2022/12/29 03:51:43;;;;;;;9.95;6.00;;;;;;;14.97;100.00;102144.78;2091091;28;20166;-74
2022/12/29 03:53:05;;;;;;;7.95;5.57;;;;;;;14.96;100.00;102135.94;2090928;28;20051;-74
2022/12/29 03:54:27;;;;;;;9.90;5.40;;;;;;;14.94;100.00;102148.28;2095986;28;20052;-74
2022/12/29 03:55:50;;;;;;;9.50;5.43;;;;;;;14.91;100.00;102142.91;2099864;28;20138;-74
2022/12/29 03:57:11;;;;;;;8.27;5.88;;;;;;;14.88;100.00;102148.16;2092256;28;20048;-74
2022/12/29 03:58:54;;;;;;;9.43;5.82;;;;;;;14.87;100.00;102148.13;2103804;28;20040;-74
2022/12/29 04:00:23;;;;;;;12.43;6.13;;;;;;;14.85;100.00;102150.75;2095240;28;20536;-74
2022/12/29 04:01:46;;;;;;;9.25;5.80;;;;;;;14.85;100.00;102149.84;2099750;28;20658;-74
2022/12/29 04:03:09;;;;;;;9.20;6.00;;;;;;;14.83;100.00;102152.50;2100621;28;20052;-74
2022/12/29 04:04:31;;;;;;;7.82;4.88;;;;;;;14.81;100.00;102146.25;2093544;28;20085;-74
2022/12/29 04:05:55;;;;;;;9.20;5.63;;;;;;;14.77;100.00;102153.25;2096399;28;20056;-74
2022/12/29 04:07:16;;;;;;;9.50;5.30;;;;;;;14.71;100.00;102152.22;2094035;28;20563;-74
2022/12/29 04:08:38;;;;;;;7.47;5.20;;;;;;;14.66;100.00;102146.81;2085703;28;20056;-75
2022/12/29 04:10:02;;;;;;;8.88;4.80;;;;;;;14.64;100.00;102148.53;2085700;28;20052;-75
2022/12/29 04:11:23;;;;;;;8.95;5.82;;;;;;;14.61;100.00;102152.91;2082772;28;20052;-74
2022/12/29 04:12:46;;;;;;;10.90;5.57;;;;;;;14.62;100.00;102158.25;2085697;28;20413;-74
2022/12/29 04:14:09;;;;;;;7.03;4.75;;;;;;;14.61;100.00;102155.56;2091635;28;20052;-74
2022/12/29 04:15:32;;;;;;;8.05;5.22;;;;;;;14.62;100.00;102152.03;2087327;28;20053;-75
2022/12/29 04:16:53;;;;;;;8.60;5.30;;;;;;;14.63;100.00;102164.47;2090690;28;20048;-75
2022/12/29 04:18:16;;;;;;;10.23;5.38;;;;;;;14.65;100.00;102158.31;2090950;28;20041;-74
2022/12/29 04:19:38;;;;;;;10.18;5.03;;;;;;;14.69;100.00;102151.31;2091341;28;20516;-74
2022/12/29 04:21:02;;;;;;;8.45;5.70;;;;;;;14.72;100.00;102154.91;2093959;28;20630;-74
2022/12/29 04:22:25;;;;;;;10.13;5.38;;;;;;;14.73;100.00;102156.72;2094491;28;20048;-74
2022/12/29 04:23:47;;;;;;;8.93;5.00;;;;;;;14.78;100.00;102159.47;2090743;28;20550;-73
2022/12/29 04:25:10;;;;;;;8.95;5.82;;;;;;;14.79;100.00;102163.03;2090360;28;20052;-74
2022/12/29 04:26:33;;;;;;;10.93;7.35;;;;;;;14.78;100.00;102162.13;2091035;28;20040;-74
2022/12/29 04:28:16;;;;;;;12.95;7.43;;;;;;;14.76;100.00;102166.53;2103327;28;20667;-74
2022/12/29 04:29:49;;;;;;;60.33;33.60;;;;;;;14.77;100.00;102167.44;2095446;28;20044;-74
2022/12/29 04:31:31;;;;;;;;;;;;;;;14.68;100.00;102169.03;2104716;28;20080;-74
2022/12/29 04:32:56;;;;;;;28.50;16.77;;;;;;;14.69;100.00;102175.25;2093513;28;20015;-74
2022/12/29 04:34:18;;;;;;;25.73;15.25;;;;;;;14.71;100.00;102173.47;2085879;28;20057;-75
2022/12/29 04:35:42;;;;;;;12.77;8.77;;;;;;;14.70;100.00;102177.03;2091836;28;20048;-74
2022/12/29 04:37:06;;;;;;;18.98;10.48;;;;;;;14.70;100.00;102166.41;2096426;28;20048;-74
2022/12/29 04:38:29;;;;;;;20.10;11.57;;;;;;;14.69;100.00;102175.25;2096209;28;20132;-75
2022/12/29 04:39:50;;;;;;;14.35;8.20;;;;;;;14.66;100.00;102168.09;2077516;28;20054;-75
2022/12/29 04:41:13;;;;;;;14.38;9.10;;;;;;;14.62;100.00;102179.53;2085488;28;20045;-74
2022/12/29 04:42:36;;;;;;;14.43;9.57;;;;;;;14.61;100.00;102182.16;2088174;28;20048;-75
2022/12/29 04:43:58;;;;;;;13.73;9.05;;;;;;;14.60;100.00;102185.66;2091502;28;20049;-75
2022/12/29 04:45:32;;;;;;;14.75;8.45;;;;;;;14.60;100.00;102180.34;2095312;28;20056;-75
2022/12/29 04:47:06;;;;;;;18.85;11.15;;;;;;;14.60;100.00;102186.56;2100206;28;20870;-75
2022/12/29 04:48:43;;;;;;;19.80;12.05;;;;;;;14.59;100.00;102183.84;2095077;28;20553;-75
2022/12/29 04:50:27;;;;;;;11.38;7.30;;;;;;;14.60;100.00;102178.59;2095698;28;20716;-75
2022/12/29 04:52:00;;;;;;;7.82;5.32;;;;;;;14.63;100.00;102186.66;2102851;28;20060;-75
2022/12/29 04:53:24;;;;;;;9.82;6.28;;;;;;;14.64;100.00;102182.19;2093562;28;20045;-74
2022/12/29 04:54:48;;;;;;;24.17;14.55;;;;;;;14.66;100.00;102186.69;2100532;28;20112;-75
2022/12/29 04:56:14;;;;;;;12.85;7.80;;;;;;;14.68;100.00;102192.94;2092449;28;20039;-75
2022/12/29 04:57:36;;;;;;;17.60;11.95;;;;;;;14.70;100.00;102193.00;2093845;28;20095;-75
2022/12/29 04:58:59;;;;;;;24.42;21.77;;;;;;;14.68;100.00;102194.72;2090724;28;20041;-75
2022/12/29 05:00:22;;;;;;;17.35;15.32;;;;;;;14.64;100.00;102198.13;2097322;28;20059;-75
2022/12/29 05:01:43;;;;;;;17.75;15.77;;;;;;;14.62;100.00;102199.88;2093644;28;20508;-75
2022/12/29 05:03:06;;;;;;;18.17;15.45;;;;;;;14.58;100.00;102203.31;2101283;28;20559;-75
2022/12/29 05:04:27;;;;;;;14.13;10.45;;;;;;;14.56;100.00;102205.06;2092813;28;20435;-75
2022/12/29 05:05:50;;;;;;;17.42;9.70;;;;;;;14.51;100.00;102204.03;2101190;28;20143;-74
2022/12/29 05:07:11;;;;;;;12.73;8.00;;;;;;;14.48;100.00;102196.03;2093780;28;20144;-75
2022/12/29 05:08:35;;;;;;;12.57;9.10;;;;;;;14.43;100.00;102201.25;2093100;28;20444;-75
2022/12/29 05:09:57;;;;;;;13.85;10.55;;;;;;;14.41;100.00;102204.72;2097827;28;20040;-75
2022/12/29 05:11:20;;;;;;;11.13;8.05;;;;;;;14.38;100.00;102201.97;2093692;28;20052;-75
2022/12/29 05:12:45;;;;;;;11.20;8.40;;;;;;;14.35;100.00;102206.34;2099942;28;20044;-75
2022/12/29 05:14:10;;;;;;;11.05;9.15;;;;;;;14.33;100.00;102208.06;2095949;28;20048;-75
2022/12/29 05:15:32;;;;;;;9.95;7.15;;;;;;;14.31;100.00;102203.56;2094434;28;20059;-75
2022/12/29 05:16:54;;;;;;;10.45;7.47;;;;;;;14.26;100.00;102211.41;2090801;28;20052;-75
2022/12/29 05:18:17;;;;;;;12.25;7.35;;;;;;;14.24;100.00;102206.94;2085276;28;20406;-75
2022/12/29 05:19:39;;;;;;;10.18;7.75;;;;;;;14.22;100.00;102206.00;2083099;28;20140;-74
2022/12/29 05:21:01;;;;;;;11.18;6.88;;;;;;;14.21;100.00;102212.19;2093432;28;20047;-75
2022/12/29 05:22:23;;;;;;;;;;;;;;;14.15;100.00;102207.63;2090258;28;20066;-74
2022/12/29 05:23:47;;;;;;;11.48;7.28;;;;;;;14.13;100.00;102214.63;2091157;28;20463;-75
2022/12/29 05:25:09;;;;;;;11.10;8.82;;;;;;;14.14;100.00;102211.13;2095880;28;20123;-75
2022/12/29 05:26:44;;;;;;;11.98;8.38;;;;;;;14.14;100.00;102210.22;2103530;28;20139;-75
2022/12/29 05:28:27;;;;;;;11.57;8.80;;;;;;;14.12;100.00;102218.16;2104520;28;20059;-74
2022/12/29 05:29:54;;;;;;;14.38;9.90;;;;;;;14.14;100.00;102210.22;2094448;28;20060;-74
2022/12/29 05:31:16;;;;;;;14.98;11.95;;;;;;;14.14;100.00;102215.53;2091379;28;20044;-75
2022/12/29 05:32:38;;;;;;;18.70;15.50;;;;;;;14.13;100.00;102217.28;2089043;28;20044;-74
2022/12/29 05:34:00;;;;;;;19.88;17.38;;;;;;;14.13;100.00;102213.75;2095165;28;20136;-75
2022/12/29 05:35:24;;;;;;;22.63;19.33;;;;;;;14.15;100.00;102220.91;2096324;28;20075;-74
2022/12/29 05:36:47;;;;;;;22.15;19.85;;;;;;;14.16;100.00;102214.72;2095415;28;20045;-74
2022/12/29 05:38:09;;;;;;;24.02;21.52;;;;;;;14.17;100.00;102210.31;2101483;28;20044;-75
2022/12/29 05:39:34;;;;;;;26.45;23.98;;;;;;;14.18;100.00;102212.09;2089429;28;20099;-75
2022/12/29 05:40:57;;;;;;;24.98;22.40;;;;;;;14.17;100.00;102219.19;2093787;28;20060;-75
2022/12/29 05:42:41;;;;;;;29.08;26.15;;;;;;;14.14;100.00;102215.53;2081180;28;20100;-74
2022/12/29 05:44:22;;;;;;;24.50;21.73;;;;;;;14.12;100.00;102218.16;2097722;28;20044;-75
2022/12/29 05:45:50;;;;;;;24.77;22.05;;;;;;;14.12;100.00;102215.50;2103313;28;20408;-74
2022/12/29 05:47:31;;;;;;;20.58;18.45;;;;;;;14.13;100.00;102224.38;2097611;28;20644;-75
2022/12/29 05:49:12;;;;;;;17.52;15.57;;;;;;;14.15;100.00;102230.63;2100562;28;20055;-74
2022/12/29 05:51:07;;;;;;;18.70;14.40;;;;;;;14.16;100.00;102228.00;2081113;28;20568;-74
2022/12/29 05:52:41;;;;;;;21.23;18.83;;;;;;;14.17;100.00;102235.13;2097729;28;20196;-75
2022/12/29 05:54:04;;;;;;;53.00;47.22;;;;;;;14.18;100.00;102228.94;2092181;28;20456;-75
2022/12/29 05:55:29;;;;;;;51.55;45.97;;;;;;;14.18;100.00;102228.94;2083790;28;20540;-74
2022/12/29 05:56:51;;;;;;;43.03;35.22;;;;;;;14.21;100.00;102234.31;2098896;28;20677;-74
2022/12/29 05:58:13;;;;;;;44.45;39.63;;;;;;;14.24;100.00;102233.50;2096654;28;20587;-75
2022/12/29 05:59:36;;;;;;;36.30;32.45;;;;;;;14.27;100.00;102239.78;2091897;28;20051;-74
2022/12/29 06:01:00;;;;;;;34.25;28.95;;;;;;;14.26;100.00;102238.00;2092694;28;20041;-75
2022/12/29 06:02:23;;;;;;;29.30;26.25;;;;;;;14.28;100.00;102236.28;2091857;28;20493;-75
2022/12/29 06:03:45;;;;;;;29.05;26.00;;;;;;;14.29;100.00;102231.88;2094714;28;20048;-74
2022/12/29 06:05:08;;;;;;;29.27;24.48;;;;;;;14.28;100.00;102230.97;2086831;28;20029;-75
2022/12/29 06:06:32;;;;;;;26.13;23.23;;;;;;;14.24;100.00;102234.38;2092461;28;20068;-75
2022/12/29 06:07:53;;;;;;;22.95;19.50;;;;;;;14.20;100.00;102235.19;2086701;28;20072;-74
2022/12/29 06:09:16;;;;;;;23.90;21.40;;;;;;;14.15;100.00;102226.22;2096080;28;20138;-75
2022/12/29 06:10:40;;;;;;;24.58;20.65;;;;;;;14.10;100.00;102227.88;2102824;28;20048;-74
2022/12/29 06:12:04;;;;;;;26.75;21.20;;;;;;;14.04;100.00;102235.69;2095492;28;20048;-75
2022/12/29 06:13:27;;;;;;;;;;;;;;;13.95;100.00;102236.34;2101010;28;20036;-75
2022/12/29 06:14:50;;;;;;;21.25;18.52;;;;;;;13.93;100.00;102238.03;2086454;28;19924;-75
2022/12/29 06:16:13;;;;;;;22.58;18.58;;;;;;;13.93;100.00;102240.69;2100624;28;20090;-74
2022/12/29 06:17:36;;;;;;;16.90;15.00;;;;;;;13.95;100.00;102243.41;2088351;28;20424;-74
2022/12/29 06:18:59;;;;;;;24.83;20.80;;;;;;;13.96;100.00;102239.91;2092914;28;20626;-74
2022/12/29 06:20:22;;;;;;;21.45;18.90;;;;;;;13.97;100.00;102239.03;2086494;28;20049;-74
2022/12/29 06:21:44;;;;;;;24.70;21.42;;;;;;;13.99;100.00;102255.88;2091428;28;20040;-74
2022/12/29 06:23:07;;;;;;;25.67;22.98;;;;;;;13.99;100.00;102247.91;2092180;28;20052;-74
2022/12/29 06:24:30;;;;;;;24.95;21.10;;;;;;;14.02;100.00;102249.75;2100272;28;20055;-76
2022/12/29 06:25:54;;;;;;;23.92;21.10;;;;;;;14.04;100.00;102251.63;2094156;28;20244;-75
2022/12/29 06:27:17;;;;;;;19.95;17.70;;;;;;;14.06;100.00;102254.28;2092595;28;20045;-73
2022/12/29 06:28:40;;;;;;;25.83;20.73;;;;;;;14.06;100.00;102251.63;2090724;28;20135;-73
2022/12/29 06:30:01;;;;;;;22.48;19.13;;;;;;;14.07;100.00;102259.63;2089528;28;20044;-74
2022/12/29 06:31:24;;;;;;;21.88;19.02;;;;;;;14.11;100.00;102257.97;2094360;28;20139;-74
2022/12/29 06:32:45;;;;;;;26.10;21.02;;;;;;;14.16;100.00;102259.00;2093898;28;20044;-73
2022/12/29 06:34:09;;;;;;;23.27;20.88;;;;;;;14.24;100.00;102260.06;2091523;28;20127;-73
2022/12/29 06:35:31;;;;;;;32.17;28.70;;;;;;;14.30;100.00;102261.13;2098442;28;20043;-74
2022/12/29 06:36:55;;;;;;;45.10;39.38;;;;;;;14.33;100.00;102262.94;2098137;28;20040;-74
2022/12/29 06:38:18;;;;;;;30.75;25.55;;;;;;;14.39;100.00;102262.22;2089262;28;20052;-74
2022/12/29 06:39:40;;;;;;;25.60;22.40;;;;;;;14.53;100.00;102263.44;2098036;28;20040;-74
2022/12/29 06:41:08;;;;;;;21.63;19.02;;;;;;;14.71;100.00;102261.22;2087812;28;20041;-74
2022/12/29 06:42:50;;;;;;;16.30;14.52;;;;;;;14.89;100.00;102260.75;2097054;28;20724;-74
2022/12/29 06:44:31;;;;;;;11.35;9.05;;;;;;;15.08;100.00;102262.94;2088745;28;20057;-74
2022/12/29 06:45:56;;;;;;;12.60;9.48;;;;;;;15.25;100.00;102255.28;2099626;28;20042;-74
2022/12/29 06:47:18;;;;;;;13.85;11.68;;;;;;;15.41;100.00;102262.72;2102864;28;20032;-74
2022/12/29 06:48:42;;;;;;;15.35;11.55;;;;;;;15.57;100.00;102261.28;2102764;28;20059;-74
2022/12/29 06:50:04;;;;;;;13.30;11.40;;;;;;;15.73;100.00;102258.97;2089167;28;20420;-74
2022/12/29 06:51:26;;;;;;;12.25;10.00;;;;;;;15.91;100.00;102258.38;2094781;28;20060;-74
2022/12/29 06:52:48;;;;;;;11.10;8.27;;;;;;;16.10;100.00;102264.94;2085917;28;20044;-74
2022/12/29 06:54:10;;;;;;;9.90;7.88;;;;;;;16.24;100.00;102258.06;2100154;28;20060;-74
2022/12/29 06:55:31;;;;;;;7.68;5.78;;;;;;;16.41;100.00;102253.03;2091228;28;20493;-74
2022/12/29 06:56:55;;;;;;;6.72;4.20;;;;;;;16.54;100.00;102258.53;2098826;28;20102;-74
2022/12/29 06:58:18;;;;;;;6.72;3.67;;;;;;;16.66;100.00;102258.78;2103097;28;20040;-74
2022/12/29 06:59:39;;;;;;;6.63;4.15;;;;;;;16.79;100.00;102257.19;2101027;28;20051;-74
2022/12/29 07:01:02;;;;;;;8.88;4.68;;;;;;;16.89;100.00;102248.41;2092674;28;20060;-74
2022/12/29 07:02:25;;;;;;;7.70;5.13;;;;;;;17.01;100.00;102247.69;2099337;28;20039;-74
2022/12/29 07:03:47;;;;;;;8.57;4.70;;;;;;;17.10;100.00;102247.81;2102810;28;20052;-74
2022/12/29 07:05:10;;;;;;;7.05;4.60;;;;;;;17.20;100.00;102249.69;2101656;28;20044;-74
2022/12/29 07:06:32;;;;;;;5.55;3.97;;;;;;;17.30;100.00;102242.72;2097143;28;20049;-74
2022/12/29 07:07:54;;;;;;;7.07;4.22;;;;;;;17.42;100.00;102242.84;2088846;28;20542;-74
2022/12/29 07:09:17;;;;;;;6.32;3.97;;;;;;;17.52;100.00;102240.28;2088508;28;20029;-74